Time;durP1;ratioP1;P1;durP2;ratioP2;P2;SDS_P1;SDS_P2;PMS_P1;PMS_P2;Temp;Humidity;BMP_temperature;BMP_pressure;BME280_temperature;BME280_humidity;BME280_pressure;Samples;Min_cycle;Max_cycle;Signal;HPM_P1;HPM_P2
2021/04/22 00:01:01;;;;;;;7.10;2.28;;;7.00;96.10;;;;;;5010449;28;20335;-75
2021/04/22 00:03:28;;;;;;;5.20;2.25;;;7.00;96.50;;;;;;5010613;28;20199;-75
2021/04/22 00:05:54;;;;;;;7.10;2.33;;;7.00;96.30;;;;;;5010466;28;20282;-75
2021/04/22 00:08:20;;;;;;;7.70;2.20;;;6.90;96.00;;;;;;5010348;28;20665;-76
2021/04/22 00:10:49;;;;;;;7.40;2.90;;;6.80;96.40;;;;;;5010303;28;20676;-75
2021/04/22 00:13:17;;;;;;;11.77;2.70;;;6.80;96.20;;;;;;5010549;28;20191;-75
2021/04/22 00:15:44;;;;;;;4.30;2.30;;;6.80;95.80;;;;;;5010306;28;20219;-75
2021/04/22 00:18:11;;;;;;;8.40;2.60;;;6.80;95.90;;;;;;5010370;28;20727;-75
2021/04/22 00:20:38;;;;;;;9.50;2.47;;;6.70;96.10;;;;;;5010185;28;20227;-75
2021/04/22 00:23:04;;;;;;;6.25;2.60;;;6.70;96.70;;;;;;5010213;28;20204;-75
2021/04/22 00:25:31;;;;;;;8.52;3.00;;;6.70;96.70;;;;;;5009469;28;20226;-75
2021/04/22 00:27:59;;;;;;;8.18;3.13;;;6.70;96.70;;;;;;5029420;28;20305;-77
2021/04/22 00:30:26;;;;;;;7.28;2.65;;;6.70;97.30;;;;;;5030038;28;20251;-77
2021/04/22 00:32:52;;;;;;;7.93;3.40;;;6.70;97.00;;;;;;5029908;28;20226;-75
2021/04/22 00:35:18;;;;;;;8.18;3.10;;;6.70;96.90;;;;;;5029863;28;20190;-75
2021/04/22 00:37:44;;;;;;;9.00;2.75;;;6.70;97.20;;;;;;5029758;28;20226;-76
2021/04/22 00:40:14;;;;;;;6.95;2.65;;;6.80;96.40;;;;;;5029684;28;20233;-75
2021/04/22 00:42:40;;;;;;;9.23;2.85;;;6.80;96.80;;;;;;5029871;28;20231;-75
2021/04/22 00:45:08;;;;;;;9.07;2.85;;;6.80;96.10;;;;;;5029724;28;20616;-75
2021/04/22 00:47:36;;;;;;;10.20;2.63;;;6.90;95.60;;;;;;5029664;28;20254;-75
2021/04/22 00:50:03;;;;;;;9.98;2.40;;;7.00;95.80;;;;;;5029610;28;20190;-76
2021/04/22 00:52:29;;;;;;;5.93;3.30;;;7.00;96.00;;;;;;5029395;28;20223;-75
2021/04/22 00:54:55;;;;;;;7.68;2.28;;;7.00;95.90;;;;;;5025810;28;20241;-76
2021/04/22 00:57:21;;;;;;;7.75;3.17;;;7.20;96.50;;;;;;5016355;28;20183;-76
2021/04/22 00:59:47;;;;;;;5.03;2.35;;;7.20;96.00;;;;;;5029389;28;20214;-75
2021/04/22 01:02:16;;;;;;;12.73;3.37;;;7.30;95.80;;;;;;5029586;28;20194;-74
2021/04/22 01:04:43;;;;;;;11.88;2.75;;;7.30;95.60;;;;;;5029430;28;20449;-75
2021/04/22 01:07:09;;;;;;;5.70;2.50;;;7.40;95.30;;;;;;5029346;28;20218;-76
2021/04/22 01:09:35;;;;;;;5.13;2.35;;;7.40;95.40;;;;;;5028964;28;20489;-75
2021/04/22 01:12:03;;;;;;;9.40;2.95;;;7.50;94.80;;;;;;5029617;28;20222;-76
2021/04/22 01:14:29;;;;;;;5.23;2.83;;;7.60;95.10;;;;;;5029412;28;20558;-76
2021/04/22 01:16:55;;;;;;;7.00;2.72;;;7.60;94.90;;;;;;5029462;28;20516;-76
2021/04/22 01:19:22;;;;;;;8.80;2.90;;;7.70;95.50;;;;;;5029314;28;20225;-76
2021/04/22 01:21:50;;;;;;;8.40;4.03;;;7.70;94.80;;;;;;5029363;28;20195;-76
2021/04/22 01:24:16;;;;;;;6.72;2.60;;;7.70;95.30;;;;;;5029374;28;20224;-76
2021/04/22 01:26:42;;;;;;;12.80;2.92;;;7.70;95.90;;;;;;5029103;28;20640;-75
2021/04/22 01:29:08;;;;;;;7.28;3.08;;;7.80;95.60;;;;;;5029269;28;20218;-76
2021/04/22 01:31:34;;;;;;;10.10;2.63;;;7.80;95.80;;;;;;5029275;28;20600;-76
2021/04/22 01:34:02;;;;;;;12.77;3.40;;;7.90;95.70;;;;;;5029069;28;20226;-76
2021/04/22 01:36:32;;;;;;;8.18;2.55;;;7.90;95.90;;;;;;5028958;28;20226;-76
2021/04/22 01:38:59;;;;;;;8.30;3.27;;;8.00;96.20;;;;;;5031739;28;20442;-75
2021/04/22 01:41:27;;;;;;;6.25;2.33;;;7.90;96.30;;;;;;5032634;28;20929;-75
2021/04/22 01:43:54;;;;;;;10.20;3.42;;;8.00;96.60;;;;;;5032475;28;20198;-75
2021/04/22 01:46:20;;;;;;;4.35;2.60;;;8.00;96.30;;;;;;5032273;28;20669;-76
2021/04/22 01:48:46;;;;;;;8.13;3.43;;;8.00;96.30;;;;;;5032224;28;20273;-76
2021/04/22 01:51:12;;;;;;;9.43;3.00;;;8.00;96.60;;;;;;5032471;28;20496;-75
2021/04/22 01:53:38;;;;;;;6.47;2.85;;;8.00;97.00;;;;;;5032173;28;20958;-76
2021/04/22 01:56:05;;;;;;;6.65;3.08;;;8.00;96.90;;;;;;5018909;28;20682;-76
2021/04/22 01:58:32;;;;;;;9.07;3.00;;;7.90;97.30;;;;;;5012397;28;20187;-75
2021/04/22 02:01:00;;;;;;;10.07;3.13;;;7.90;97.30;;;;;;5012177;28;20239;-75
2021/04/22 02:03:28;;;;;;;4.07;2.60;;;7.90;97.70;;;;;;5012361;28;20282;-75
2021/04/22 02:05:54;;;;;;;7.78;2.97;;;7.90;97.80;;;;;;5012437;28;20187;-76
2021/04/22 02:08:20;;;;;;;7.65;2.97;;;8.00;98.20;;;;;;5012253;28;20254;-75
2021/04/22 02:10:47;;;;;;;10.73;2.80;;;8.00;98.20;;;;;;5012289;28;20191;-75
2021/04/22 02:13:16;;;;;;;16.77;4.03;;;8.00;97.60;;;;;;5012237;28;20478;-76
2021/04/22 02:15:43;;;;;;;13.63;2.97;;;7.90;98.00;;;;;;5012046;28;20457;-77
2021/04/22 02:18:09;;;;;;;7.20;3.08;;;7.90;98.70;;;;;;5012166;28;20494;-75
2021/04/22 02:20:36;;;;;;;10.20;2.50;;;7.90;98.60;;;;;;5012288;28;20191;-75
2021/04/22 02:23:03;;;;;;;10.68;4.60;;;7.90;98.30;;;;;;5012196;28;20245;-80
2021/04/22 02:25:30;;;;;;;10.63;3.55;;;7.80;98.90;;;;;;5012000;28;20286;-76
2021/04/22 02:27:57;;;;;;;6.68;2.55;;;7.80;99.00;;;;;;5030813;28;20700;-76
2021/04/22 02:30:26;;;;;;;11.27;3.33;;;7.80;98.90;;;;;;5031679;28;20191;-77
2021/04/22 02:32:53;;;;;;;7.68;3.28;;;7.90;99.90;;;;;;5031487;28;20278;-77
2021/04/22 02:35:22;;;;;;;10.43;3.07;;;7.90;99.20;;;;;;5031691;28;20191;-77
2021/04/22 02:37:48;;;;;;;13.50;3.00;;;7.90;98.90;;;;;;5031690;28;20879;-77
2021/04/22 02:40:17;;;;;;;13.43;2.47;;;7.90;99.90;;;;;;5031680;28;20804;-78
2021/04/22 02:42:44;;;;;;;4.18;2.60;;;7.90;99.90;;;;;;5031335;28;20186;-78
2021/04/22 02:45:13;;;;;;;6.15;3.17;;;7.90;99.90;;;;;;5031638;28;20197;-75
2021/04/22 02:47:41;;;;;;;9.05;3.17;;;7.80;99.60;;;;;;5031338;28;20653;-75
2021/04/22 02:50:10;;;;;;;11.25;3.75;;;7.80;99.30;;;;;;5031141;28;20285;-74
2021/04/22 02:52:36;;;;;;;8.13;2.70;;;7.80;99.90;;;;;;5031469;28;20198;-75
2021/04/22 02:55:04;;;;;;;12.40;3.22;;;7.80;99.90;;;;;;5027454;27;20634;-74
2021/04/22 02:57:30;;;;;;;6.05;3.40;;;7.90;99.80;;;;;;5045913;27;20240;-75
2021/04/22 02:59:56;;;;;;;7.50;4.15;;;7.90;99.90;;;;;;5034450;27;20257;-75
2021/04/22 03:02:22;;;;;;;12.02;3.67;;;7.90;99.90;;;;;;5033215;28;20684;-75
2021/04/22 03:04:49;;;;;;;6.68;2.85;;;7.90;99.80;;;;;;5033076;27;20243;-77
2021/04/22 03:07:15;;;;;;;11.93;3.20;;;7.90;99.90;;;;;;5030989;28;20218;-83
2021/04/22 03:09:41;;;;;;;10.48;3.22;;;7.90;99.90;;;;;;5030973;28;20657;-80
2021/04/22 03:12:08;;;;;;;7.80;4.30;;;7.80;99.90;;;;;;5030955;28;20226;-77
2021/04/22 03:14:35;;;;;;;8.45;3.03;;;7.80;99.90;;;;;;5049320;27;20187;-75
2021/04/22 03:17:01;;;;;;;8.48;3.05;;;7.80;99.90;;;;;;5039345;27;20255;-75
2021/04/22 03:19:27;;;;;;;5.70;3.00;;;7.90;99.90;;;;;;5039225;27;20720;-76
2021/04/22 03:21:54;;;;;;;9.70;3.45;;;7.90;99.90;;;;;;5039322;27;20187;-75
2021/04/22 03:24:20;;;;;;;13.80;2.63;;;7.90;99.90;;;;;;5039444;27;20241;-75
2021/04/22 03:26:46;;;;;;;10.87;3.77;;;7.90;99.90;;;;;;5030355;28;20548;-75
2021/04/22 03:29:12;;;;;;;10.20;2.83;;;7.90;99.90;;;;;;5029755;28;20461;-75
2021/04/22 03:31:38;;;;;;;10.57;2.90;;;7.90;99.90;;;;;;5030555;28;20536;-75
2021/04/22 03:34:05;;;;;;;5.40;2.53;;;7.80;99.90;;;;;;5030090;28;20222;-75
2021/04/22 03:36:31;;;;;;;7.00;3.40;;;7.80;99.90;;;;;;5028915;28;20557;-75
2021/04/22 03:38:58;;;;;;;9.40;3.38;;;7.70;99.90;;;;;;5030359;28;20202;-75
2021/04/22 03:41:24;;;;;;;11.35;3.10;;;7.70;99.90;;;;;;5030461;28;20222;-75
2021/04/22 03:43:50;;;;;;;9.55;3.78;;;7.80;99.90;;;;;;5030313;28;20268;-75
2021/04/22 03:46:16;;;;;;;6.35;2.80;;;7.80;99.90;;;;;;5030460;28;20324;-75
2021/04/22 03:48:42;;;;;;;12.80;3.95;;;7.80;99.90;;;;;;5030475;28;20190;-75
2021/04/22 03:51:08;;;;;;;6.90;2.90;;;7.80;99.90;;;;;;5030397;28;20717;-75
2021/04/22 03:53:34;;;;;;;5.45;2.58;;;7.80;99.90;;;;;;5030228;28;20286;-75
2021/04/22 03:56:01;;;;;;;16.50;4.07;;;7.80;99.90;;;;;;5017539;28;20282;-75
2021/04/22 03:58:27;;;;;;;12.65;3.72;;;7.80;99.90;;;;;;5010581;28;20227;-75
2021/04/22 04:00:53;;;;;;;11.30;2.73;;;7.80;99.90;;;;;;5009717;28;20262;-74
2021/04/22 04:03:19;;;;;;;9.70;3.90;;;7.80;99.90;;;;;;5010800;28;20542;-75
2021/04/22 04:05:45;;;;;;;9.23;3.30;;;7.80;99.90;;;;;;5011339;28;20225;-75
2021/04/22 04:08:11;;;;;;;5.60;2.53;;;7.80;99.90;;;;;;5028816;28;21050;-75
2021/04/22 04:10:38;;;;;;;9.55;3.10;;;7.80;99.90;;;;;;5028668;28;20220;-75
2021/04/22 04:13:05;;;;;;;5.18;2.70;;;7.80;99.90;;;;;;5028816;28;20281;-75
2021/04/22 04:15:31;;;;;;;8.80;3.40;;;7.80;99.90;;;;;;5029621;28;20241;-77
2021/04/22 04:17:57;;;;;;;5.55;2.75;;;7.80;99.90;;;;;;5030164;28;20252;-75
2021/04/22 04:20:23;;;;;;;6.80;3.78;;;7.90;99.90;;;;;;5030073;28;20230;-77
2021/04/22 04:22:49;;;;;;;9.05;3.13;;;7.80;99.90;;;;;;5029927;28;20225;-75
2021/04/22 04:25:15;;;;;;;8.30;2.50;;;7.90;99.90;;;;;;5030128;28;20190;-75
2021/04/22 04:27:42;;;;;;;9.88;2.63;;;7.90;99.90;;;;;;5029958;28;20750;-75
2021/04/22 04:30:15;;;;;;;6.95;2.75;;;7.90;99.90;;;;;;5029972;28;20637;-76
2021/04/22 04:32:41;;;;;;;8.80;3.22;;;7.90;99.90;;;;;;5030442;27;20203;-76
2021/04/22 04:35:08;;;;;;;11.35;2.85;;;7.90;99.90;;;;;;5029754;28;20226;-76
2021/04/22 04:37:35;;;;;;;11.68;3.10;;;8.00;99.90;;;;;;5029732;28;20226;-76
2021/04/22 04:40:01;;;;;;;7.65;3.10;;;8.00;99.90;;;;;;5029856;28;20235;-76
2021/04/22 04:42:27;;;;;;;9.13;2.60;;;8.00;99.90;;;;;;5029927;28;20199;-75
2021/04/22 04:44:53;;;;;;;12.73;3.30;;;8.10;99.90;;;;;;5029734;28;20222;-75
2021/04/22 04:47:20;;;;;;;8.68;2.72;;;8.10;99.90;;;;;;5029645;28;20476;-75
2021/04/22 04:49:47;;;;;;;7.63;2.88;;;8.10;99.90;;;;;;5029747;28;20210;-76
2021/04/22 04:52:13;;;;;;;14.73;5.60;;;8.20;99.90;;;;;;5029515;28;20194;-75
2021/04/22 04:54:39;;;;;;;6.33;3.23;;;8.20;99.90;;;;;;5028149;28;20873;-76
2021/04/22 04:57:07;;;;;;;7.78;2.70;;;8.30;99.90;;;;;;5009908;28;20557;-76
2021/04/22 04:59:33;;;;;;;10.15;2.83;;;8.30;99.90;;;;;;5009591;28;20191;-76
2021/04/22 05:01:59;;;;;;;11.03;3.20;;;8.40;99.90;;;;;;5009922;28;20187;-76
2021/04/22 05:04:26;;;;;;;9.50;3.17;;;8.40;99.90;;;;;;5009604;28;20501;-76
2021/04/22 05:06:52;;;;;;;5.68;2.88;;;8.50;99.90;;;;;;5009929;28;20520;-76
2021/04/22 05:09:18;;;;;;;7.80;2.88;;;8.50;99.90;;;;;;5009896;28;20606;-76
2021/04/22 05:11:44;;;;;;;10.23;3.58;;;8.50;99.90;;;;;;5010443;28;20192;-75
2021/04/22 05:14:10;;;;;;;7.00;2.50;;;8.50;99.90;;;;;;5013222;28;20274;-75
2021/04/22 05:16:40;;;;;;;7.40;2.70;;;8.60;99.90;;;;;;5012928;28;21015;-76
2021/04/22 05:19:06;;;;;;;9.85;3.38;;;8.60;99.90;;;;;;5012953;28;20218;-76
2021/04/22 05:21:33;;;;;;;8.00;3.47;;;8.70;99.90;;;;;;5013013;28;20217;-76
2021/04/22 05:23:59;;;;;;;7.67;3.13;;;8.70;99.90;;;;;;5013062;28;20802;-76
2021/04/22 05:26:25;;;;;;;7.13;3.00;;;8.80;99.90;;;;;;5019491;28;20457;-75
2021/04/22 05:28:53;;;;;;;10.93;3.53;;;9.00;99.90;;;;;;5032573;28;20233;-76
2021/04/22 05:31:19;;;;;;;7.63;2.60;;;9.00;99.90;;;;;;5032541;28;20457;-75
2021/04/22 05:33:45;;;;;;;10.03;3.00;;;9.00;99.90;;;;;;5032388;28;20477;-75
2021/04/22 05:36:11;;;;;;;13.30;3.20;;;9.10;99.90;;;;;;5032451;28;20794;-75
2021/04/22 05:38:38;;;;;;;8.27;3.70;;;9.20;99.90;;;;;;5032633;28;20492;-76
2021/04/22 05:41:04;;;;;;;8.77;3.70;;;9.30;99.90;;;;;;5032443;28;20453;-76
2021/04/22 05:43:31;;;;;;;12.95;3.10;;;9.50;99.90;;;;;;5032575;28;20485;-75
2021/04/22 05:46:06;;;;;;;10.70;2.83;;;9.60;99.90;;;;;;5032290;28;20199;-76
2021/04/22 05:48:32;;;;;;;10.47;3.70;;;9.70;99.90;;;;;;5032465;28;20958;-76
2021/04/22 05:50:58;;;;;;;10.07;3.40;;;9.80;99.90;;;;;;5032477;28;20869;-77
2021/04/22 05:53:24;;;;;;;14.07;3.60;;;9.90;99.90;;;;;;5032377;28;21008;-77
2021/04/22 05:55:51;;;;;;;12.33;3.10;;;9.90;99.80;;;;;;5020678;28;20975;-77
2021/04/22 05:58:17;;;;;;;8.97;3.00;;;10.00;99.70;;;;;;5012404;28;20489;-77
2021/04/22 06:00:44;;;;;;;6.37;3.10;;;10.10;99.80;;;;;;5012089;28;20572;-76
2021/04/22 06:03:10;;;;;;;8.73;2.80;;;10.10;99.50;;;;;;5012622;28;20474;-76
2021/04/22 06:05:36;;;;;;;9.53;3.03;;;10.20;99.20;;;;;;5012273;28;20950;-77
2021/04/22 06:08:03;;;;;;;12.40;3.67;;;10.30;98.70;;;;;;5012227;28;20875;-77
2021/04/22 06:10:29;;;;;;;10.70;3.13;;;10.20;98.70;;;;;;5012153;28;20450;-77
2021/04/22 06:12:57;;;;;;;8.43;3.07;;;10.10;98.60;;;;;;5012185;28;20454;-77
2021/04/22 06:15:24;;;;;;;4.90;2.80;;;10.10;98.50;;;;;;5012077;28;20537;-77
2021/04/22 06:17:50;;;;;;;6.50;2.73;;;10.20;98.80;;;;;;5012423;28;20455;-77
2021/04/22 06:20:19;;;;;;;5.70;2.50;;;10.40;98.10;;;;;;5011940;28;20978;-77
2021/04/22 06:22:46;;;;;;;7.50;2.80;;;10.50;98.30;;;;;;5011961;28;20454;-77
2021/04/22 06:25:13;;;;;;;9.00;3.30;;;10.70;97.60;;;;;;5011432;28;20540;-77
2021/04/22 06:27:39;;;;;;;4.80;3.20;;;10.70;97.60;;;;;;5028725;28;20513;-77
2021/04/22 06:30:09;;;;;;;6.80;2.73;;;10.70;97.10;;;;;;5031682;28;20553;-77
2021/04/22 06:32:35;;;;;;;8.40;2.63;;;10.80;97.30;;;;;;5031756;28;20457;-77
2021/04/22 06:35:03;;;;;;;9.90;3.10;;;10.80;96.70;;;;;;5031795;28;20508;-77
2021/04/22 06:37:29;;;;;;;8.30;3.80;;;10.80;97.30;;;;;;5031561;28;20665;-77
2021/04/22 06:39:55;;;;;;;5.70;2.67;;;11.10;97.30;;;;;;5031676;28;20509;-77
2021/04/22 06:42:21;;;;;;;5.93;2.40;;;11.10;96.80;;;;;;5031466;28;20959;-77
2021/04/22 06:44:47;;;;;;;10.30;2.60;;;11.20;96.20;;;;;;5031480;28;20549;-77
2021/04/22 06:47:14;;;;;;;8.70;2.80;;;11.30;96.30;;;;;;5031476;28;20584;-77
2021/04/22 06:49:41;;;;;;;12.53;3.30;;;11.40;95.60;;;;;;5031602;28;20544;-77
2021/04/22 06:52:07;;;;;;;6.63;3.33;;;11.40;96.10;;;;;;5031369;28;20548;-77
2021/04/22 06:54:34;;;;;;;6.57;2.70;;;11.40;95.70;;;;;;5030527;28;20492;-77
2021/04/22 06:57:00;;;;;;;8.97;2.87;;;11.50;96.40;;;;;;5011526;28;20829;-77
2021/04/22 06:59:26;;;;;;;6.43;2.53;;;11.50;95.60;;;;;;5011540;28;20497;-78
2021/04/22 07:01:53;;;;;;;9.00;3.37;;;11.50;95.70;;;;;;5011558;28;20541;-77
2021/04/22 07:04:20;;;;;;;10.60;3.00;;;11.50;95.40;;;;;;5011586;28;20535;-77
2021/04/22 07:06:46;;;;;;;5.40;2.40;;;11.50;95.20;;;;;;5011306;28;20490;-77
2021/04/22 07:09:14;;;;;;;5.60;2.57;;;11.30;95.00;;;;;;5011313;28;20948;-77
2021/04/22 07:11:40;;;;;;;10.33;3.87;;;11.20;95.40;;;;;;5011235;28;20500;-77
2021/04/22 07:14:06;;;;;;;12.70;3.07;;;11.10;95.60;;;;;;5011436;28;20484;-77
2021/04/22 07:16:35;;;;;;;13.40;2.50;;;11.10;96.40;;;;;;5011204;28;20992;-77
2021/04/22 07:19:01;;;;;;;9.73;2.67;;;11.30;96.40;;;;;;5011335;28;20454;-77
2021/04/22 07:21:28;;;;;;;11.37;3.00;;;11.50;95.90;;;;;;5011234;28;20497;-80
2021/04/22 07:23:54;;;;;;;5.60;2.43;;;11.80;96.00;;;;;;5011118;28;20450;-80
2021/04/22 07:26:20;;;;;;;9.83;2.57;;;12.10;95.70;;;;;;5017022;28;20502;-80
2021/04/22 07:28:46;;;;;;;7.60;3.23;;;12.40;95.10;;;;;;5030948;28;20538;-80
2021/04/22 07:31:12;;;;;;;4.43;2.63;;;12.60;94.70;;;;;;5031226;28;20864;-86
2021/04/22 07:33:38;;;;;;;10.00;2.83;;;12.60;93.70;;;;;;5030763;28;20983;-86
2021/04/22 07:36:05;;;;;;;6.77;2.50;;;12.40;93.70;;;;;;5030754;28;20485;-86
2021/04/22 07:38:32;;;;;;;11.80;3.33;;;12.50;93.80;;;;;;5030601;28;20485;-86
2021/04/22 07:40:58;;;;;;;6.57;2.63;;;12.50;93.70;;;;;;5031178;28;20808;-87
2021/04/22 07:43:24;;;;;;;13.67;3.13;;;12.50;93.10;;;;;;5030886;28;20459;-86
2021/04/22 07:45:51;;;;;;;11.13;3.60;;;12.50;93.40;;;;;;5030599;28;20591;-86
2021/04/22 07:48:17;;;;;;;5.53;2.73;;;12.50;93.10;;;;;;5030621;28;20521;-87
2021/04/22 07:50:43;;;;;;;11.20;4.50;;;12.50;93.20;;;;;;5030668;28;20475;-87
2021/04/22 07:53:10;;;;;;;6.33;2.37;;;12.60;93.40;;;;;;5030357;28;20967;-87
2021/04/22 07:55:40;;;;;;;8.20;2.80;;;12.70;93.10;;;;;;5021560;28;20458;-87
2021/04/22 07:58:07;;;;;;;6.93;2.60;;;12.70;92.90;;;;;;5011015;28;20960;-88
2021/04/22 08:00:33;;;;;;;5.33;2.40;;;12.80;93.00;;;;;;5010593;28;20482;-89
2021/04/22 08:03:01;;;;;;;7.40;2.47;;;13.00;93.10;;;;;;5010752;28;20461;-88
2021/04/22 08:05:29;;;;;;;10.47;3.23;;;12.80;92.10;;;;;;5010925;28;20446;-88
2021/04/22 08:07:56;;;;;;;9.47;3.43;;;12.60;92.20;;;;;;5010611;28;20573;-88
2021/04/22 08:10:25;;;;;;;6.50;3.03;;;12.40;92.40;;;;;;5010895;28;20457;-88
2021/04/22 08:12:52;;;;;;;12.03;2.27;;;12.40;93.10;;;;;;5010898;28;20541;-89
2021/04/22 08:15:18;;;;;;;8.87;3.00;;;12.50;93.00;;;;;;5010699;28;20485;-88
2021/04/22 08:17:45;;;;;;;7.00;3.07;;;12.70;93.30;;;;;;5010907;28;20929;-89
2021/04/22 08:20:14;;;;;;;8.07;2.10;;;13.00;93.40;;;;;;5010546;28;20482;-86
2021/04/22 08:22:40;;;;;;;4.07;2.40;;;13.40;92.80;;;;;;5010264;28;20794;-86
2021/04/22 08:25:10;;;;;;;4.57;2.53;;;13.40;92.00;;;;;;5010662;28;20477;-93
2021/04/22 08:27:36;;;;;;;7.67;2.60;;;13.40;91.70;;;;;;5026426;28;20508;-87
2021/04/22 08:30:06;;;;;;;5.73;2.70;;;13.40;91.70;;;;;;5030217;28;20531;-87
2021/04/22 08:32:32;;;;;;;7.47;2.47;;;13.50;91.70;;;;;;5029873;28;20454;-87
2021/04/22 08:34:58;;;;;;;4.70;2.23;;;13.50;91.90;;;;;;5029709;28;20536;-87
2021/04/22 08:37:24;;;;;;;4.40;2.10;;;13.50;91.50;;;;;;5030012;28;20816;-86
2021/04/22 08:39:50;;;;;;;4.00;2.20;;;13.40;91.30;;;;;;5030183;28;20461;-87
2021/04/22 08:42:17;;;;;;;8.60;3.20;;;13.50;91.50;;;;;;5029860;28;20936;-87
2021/04/22 08:44:45;;;;;;;6.63;2.50;;;13.60;90.80;;;;;;5029950;28;20492;-87
2021/04/22 08:47:12;;;;;;;8.80;2.60;;;13.60;91.40;;;;;;5031027;28;20569;-88
2021/04/22 08:49:38;;;;;;;5.23;2.40;;;13.70;91.00;;;;;;5033408;28;20510;-87
2021/04/22 08:52:05;;;;;;;5.43;2.87;;;13.70;90.70;;;;;;5033791;28;20453;-87
2021/04/22 08:54:31;;;;;;;7.30;3.00;;;13.60;90.30;;;;;;5032853;28;20449;-88
2021/04/22 08:56:58;;;;;;;10.00;2.60;;;13.40;90.50;;;;;;5013813;28;20464;-87
2021/04/22 08:59:24;;;;;;;9.87;3.23;;;13.30;90.60;;;;;;5013306;28;20454;-84
2021/04/22 09:01:51;;;;;;;8.07;2.47;;;13.40;90.80;;;;;;5013632;28;20450;-88
2021/04/22 09:04:18;;;;;;;13.83;2.67;;;13.50;90.40;;;;;;5013174;28;20458;-88
2021/04/22 09:06:44;;;;;;;6.10;2.50;;;13.50;90.60;;;;;;5013502;28;20464;-88
2021/04/22 09:09:10;;;;;;;14.40;2.80;;;13.30;90.30;;;;;;5013477;28;20512;-87
2021/04/22 09:11:43;;;;;;;5.83;2.37;;;13.30;90.50;;;;;;5013484;28;20481;-88
2021/04/22 09:14:13;;;;;;;5.13;2.43;;;13.50;90.60;;;;;;5013433;28;20449;-87
2021/04/22 09:16:40;;;;;;;6.93;2.37;;;13.80;90.30;;;;;;5013323;28;20458;-88
2021/04/22 09:19:10;;;;;;;5.53;2.40;;;14.10;89.70;;;;;;5013084;28;20933;-88
2021/04/22 09:21:40;;;;;;;4.67;2.30;;;14.00;89.10;;;;;;5013098;28;20912;-88
2021/04/22 09:24:11;;;;;;;5.77;2.27;;;14.00;89.20;;;;;;5013187;28;20490;-88
2021/04/22 09:26:39;;;;;;;7.10;2.30;;;14.00;89.60;;;;;;5021192;28;20911;-88
2021/04/22 09:29:06;;;;;;;11.00;2.53;;;13.90;89.20;;;;;;5032599;27;20477;-87
2021/04/22 09:31:33;;;;;;;6.33;2.80;;;13.80;89.10;;;;;;5033012;28;20483;-88
2021/04/22 09:34:05;;;;;;;8.87;3.10;;;13.80;90.10;;;;;;5032809;28;20460;-88
2021/04/22 09:36:44;;;;;;;3.97;2.40;;;14.10;90.10;;;;;;5032866;28;20453;-89
2021/04/22 09:39:12;;;;;;;6.17;2.40;;;14.10;89.50;;;;;;5033665;28;20457;-88
2021/04/22 09:41:39;;;;;;;7.70;2.30;;;14.20;89.60;;;;;;5033816;28;20462;-89
2021/04/22 09:44:08;;;;;;;4.73;1.90;;;14.20;89.10;;;;;;5033548;28;20453;-88
2021/04/22 09:46:34;;;;;;;8.53;2.10;;;14.30;89.70;;;;;;5033550;28;20496;-88
2021/04/22 09:49:07;;;;;;;5.03;1.73;;;14.30;88.20;;;;;;5033258;28;20538;-88
2021/04/22 09:51:37;;;;;;;4.23;1.87;;;14.20;88.50;;;;;;5033216;28;20480;-88
2021/04/22 09:54:06;;;;;;;4.27;2.20;;;14.20;88.60;;;;;;5033179;28;20498;-87
2021/04/22 09:56:47;;;;;;;7.30;2.57;;;14.00;88.90;;;;;;5016414;28;20478;-86
2021/04/22 09:59:17;;;;;;;10.30;2.40;;;13.80;89.20;;;;;;5012585;28;20458;-88
2021/04/22 10:01:44;;;;;;;11.20;2.97;;;13.70;90.10;;;;;;5017497;27;20579;-88
2021/04/22 10:04:12;;;;;;;7.57;2.27;;;13.70;89.80;;;;;;5052455;27;20549;-87
2021/04/22 10:06:41;;;;;;;5.70;2.00;;;13.70;90.10;;;;;;5125976;27;20565;-88
2021/04/22 10:09:08;;;;;;;4.93;2.03;;;13.90;88.90;;;;;;5124365;27;20480;-89
2021/04/22 10:11:47;;;;;;;9.13;1.90;;;14.10;89.40;;;;;;5075984;27;20449;-87
2021/04/22 10:14:13;;;;;;;6.70;2.37;;;14.20;89.10;;;;;;5110390;27;20444;-88
2021/04/22 10:16:42;;;;;;;9.40;2.80;;;14.10;88.80;;;;;;5114092;27;20546;-88
2021/04/22 10:19:15;;;;;;;4.57;2.10;;;14.00;88.60;;;;;;5057559;27;20453;-86
2021/04/22 10:21:43;;;;;;;4.37;1.90;;;13.60;85.00;;;;;;5128450;27;20444;-86
2021/04/22 10:24:12;;;;;;;5.90;1.90;;;13.40;84.50;;;;;;5096824;27;20457;-87
2021/04/22 10:26:39;;;;;;;4.47;1.93;;;13.50;85.90;;;;;;5096799;27;20482;-85
2021/04/22 10:29:06;;;;;;;4.60;1.67;;;13.70;84.30;;;;;;5077313;27;20555;-86
2021/04/22 10:31:32;;;;;;;4.57;2.00;;;13.60;82.90;;;;;;5108583;27;20449;-86
2021/04/22 10:33:59;;;;;;;5.70;1.80;;;13.50;83.40;;;;;;5109920;27;20532;-85
2021/04/22 10:36:25;;;;;;;4.57;1.57;;;13.50;84.30;;;;;;5049650;27;20445;-86
2021/04/22 10:38:52;;;;;;;5.23;1.53;;;13.40;83.60;;;;;;5129807;27;20525;-86
2021/04/22 10:41:19;;;;;;;7.80;1.80;;;13.20;83.00;;;;;;5094095;27;20853;-87
2021/04/22 10:43:46;;;;;;;3.97;1.20;;;13.10;82.10;;;;;;5099819;27;20441;-86
2021/04/22 10:46:13;;;;;;;5.60;1.63;;;13.30;81.70;;;;;;5128847;27;20433;-86
2021/04/22 10:48:39;;;;;;;5.10;1.70;;;13.50;79.40;;;;;;5051850;27;20998;-85
2021/04/22 10:51:07;;;;;;;5.40;2.00;;;13.60;79.80;;;;;;5120611;27;20448;-87
2021/04/22 11:04:03;;;;;;;5.97;1.97;;;12.90;79.90;;;;;;5033758;28;20553;-87
2021/04/22 11:09:38;;;;;;;1.50;1.10;;;12.80;79.10;;;;;;5058094;27;20798;-86
2021/04/22 11:15:28;;;;;;;4.10;1.23;;;13.30;77.50;;;;;;5024240;27;20453;-87
2021/04/22 11:17:54;;;;;;;4.97;1.57;;;13.50;77.30;;;;;;5094488;27;20453;-86
2021/04/22 11:20:21;;;;;;;2.90;1.00;;;13.60;78.90;;;;;;5087241;27;20518;-88
2021/04/22 11:22:50;;;;;;;15.07;1.83;;;13.70;78.00;;;;;;5073417;27;20967;-87
2021/04/22 11:25:18;;;;;;;3.07;1.60;;;13.50;79.70;;;;;;5081486;27;20957;-86
2021/04/22 11:27:48;;;;;;;5.77;2.03;;;13.50;80.20;;;;;;5077383;27;20469;-87
2021/04/22 11:30:25;;;;;;;7.00;1.50;;;13.60;81.00;;;;;;5091869;27;20447;-85
2021/04/22 11:32:55;;;;;;;2.90;1.50;;;13.70;79.70;;;;;;5105963;27;20555;-86
2021/04/22 11:35:24;;;;;;;3.37;1.50;;;13.90;78.70;;;;;;5055531;27;20473;-86
2021/04/22 11:37:51;;;;;;;6.20;1.23;;;14.10;77.20;;;;;;5094061;27;20529;-87
2021/04/22 11:40:21;;;;;;;3.87;1.50;;;14.20;76.50;;;;;;5088284;27;20962;-86
2021/04/22 11:42:49;;;;;;;7.20;1.70;;;14.30;78.70;;;;;;5065428;27;20449;-85
2021/04/22 11:45:18;;;;;;;4.63;1.33;;;14.30;76.50;;;;;;5081936;27;20859;-85
2021/04/22 11:47:50;;;;;;;2.60;1.17;;;14.30;76.80;;;;;;5070980;27;20461;-86
2021/04/22 11:50:20;;;;;;;3.90;1.63;;;14.40;75.80;;;;;;5086995;27;20445;-86
2021/04/22 11:52:51;;;;;;;2.00;1.20;;;14.40;73.60;;;;;;5087818;27;20448;-86
2021/04/22 11:55:21;;;;;;;5.97;1.47;;;14.50;74.80;;;;;;5079264;27;20458;-84
2021/04/22 11:57:56;;;;;;;3.37;1.40;;;14.70;75.30;;;;;;5082358;27;20480;-85
2021/04/22 12:00:24;;;;;;;3.20;1.13;;;14.70;74.40;;;;;;5087683;27;20441;-86
2021/04/22 12:02:51;;;;;;;6.50;1.60;;;14.70;71.30;;;;;;5096203;27;20441;-86
2021/04/22 12:05:18;;;;;;;5.60;2.10;;;14.60;70.20;;;;;;5076953;27;20540;-86
2021/04/22 12:07:54;;;;;;;4.20;1.50;;;14.60;69.60;;;;;;5098618;27;20488;-85
2021/04/22 12:10:20;;;;;;;3.00;2.03;;;14.70;69.70;;;;;;5058321;27;20449;-86
2021/04/22 12:12:47;;;;;;;4.50;1.43;;;14.70;69.80;;;;;;5114051;27;20539;-86
2021/04/22 12:15:14;;;;;;;4.70;1.53;;;14.60;71.90;;;;;;5078541;27;20457;-86
2021/04/22 12:17:41;;;;;;;2.70;1.53;;;14.30;71.70;;;;;;5093534;27;20533;-87
2021/04/22 12:20:10;;;;;;;4.93;2.10;;;14.10;73.70;;;;;;5093422;27;21034;-86
2021/04/22 12:22:39;;;;;;;3.90;1.43;;;13.90;75.00;;;;;;5067434;27;20528;-85
2021/04/22 12:25:12;;;;;;;3.93;1.50;;;13.90;76.60;;;;;;5075384;27;20445;-87
2021/04/22 12:27:40;;;;;;;9.23;2.30;;;14.00;76.10;;;;;;5066470;28;20480;-86
2021/04/22 12:30:25;;;;;;;3.87;1.53;;;14.10;77.80;;;;;;5069281;28;20485;-92
2021/04/22 12:32:55;;;;;;;4.30;1.43;;;14.40;77.70;;;;;;5069943;28;20445;-86
2021/04/22 12:35:24;;;;;;;4.90;2.20;;;14.70;77.40;;;;;;5115603;28;20548;-86
2021/04/22 12:37:51;;;;;;;4.00;2.00;;;15.00;76.90;;;;;;5060855;28;20445;-87
2021/04/22 12:40:18;;;;;;;4.10;1.87;;;15.20;76.00;;;;;;5082563;28;20453;-87
2021/04/22 12:42:47;;;;;;;4.40;1.90;;;15.20;75.30;;;;;;5100248;28;20773;-86
2021/04/22 12:45:16;;;;;;;3.80;1.50;;;15.10;74.00;;;;;;5042644;28;20446;-86
2021/04/22 12:47:44;;;;;;;2.17;1.43;;;14.80;73.60;;;;;;5054880;28;20820;-86
2021/04/22 12:50:13;;;;;;;2.83;1.13;;;14.50;74.90;;;;;;5123721;28;20497;-86
2021/04/22 12:52:40;;;;;;;2.23;1.40;;;14.30;76.70;;;;;;5066712;28;20480;-88
2021/04/22 12:55:10;;;;;;;4.13;1.93;;;14.30;74.30;;;;;;5022825;28;20457;-87
2021/04/22 12:57:36;;;;;;;5.97;1.93;;;14.40;73.10;;;;;;5046043;28;20480;-86
2021/04/22 13:00:08;;;;;;;6.50;1.77;;;14.60;72.80;;;;;;5092678;27;20476;-87
2021/04/22 13:02:34;;;;;;;2.43;1.60;;;14.40;72.00;;;;;;5036533;28;20505;-88
2021/04/22 13:05:03;;;;;;;5.63;1.93;;;14.40;73.60;;;;;;5110689;28;20436;-87
2021/04/22 13:07:35;;;;;;;5.40;2.20;;;14.40;73.50;;;;;;5051809;28;20521;-87